createdAt,value
2019-02-24T00:01:10.284Z,102476.56
2019-02-24T00:03:37.460Z,102478.85
2019-02-24T00:06:04.651Z,102477.57
2019-02-24T00:08:31.923Z,102479.66
2019-02-24T00:10:59.144Z,102473.00
2019-02-24T00:13:26.278Z,102471.81
2019-02-24T00:15:53.470Z,102469.80
2019-02-24T00:18:20.582Z,102467.26
2019-02-24T00:20:47.727Z,102465.61
2019-02-24T00:23:14.867Z,102466.96
2019-02-24T00:25:41.993Z,102463.05
2019-02-24T00:28:09.192Z,102458.41
2019-02-24T00:30:36.327Z,102461.42
2019-02-24T00:33:03.479Z,102465.30
2019-02-24T00:35:30.707Z,102466.14
2019-02-24T00:37:57.861Z,102463.09
2019-02-24T00:40:24.989Z,102459.69
2019-02-24T00:42:52.149Z,102459.72
2019-02-24T00:45:19.308Z,102455.78
2019-02-24T00:47:46.432Z,102445.52
2019-02-24T00:50:13.632Z,102443.79
2019-02-24T00:52:40.816Z,102446.42
2019-02-24T00:55:08.029Z,102441.75
2019-02-24T00:57:35.145Z,102442.61
2019-02-24T01:02:31.142Z,102442.61
2019-02-24T01:04:58.840Z,102449.42
2019-02-24T01:07:26.449Z,102447.64
2019-02-24T01:09:54.008Z,102446.75
2019-02-24T01:12:22.019Z,102449.77
2019-02-24T01:14:49.178Z,102455.32
2019-02-24T01:17:16.348Z,102451.92
2019-02-24T01:19:43.350Z,102457.53
2019-02-24T01:22:12.682Z,102459.52
2019-02-24T01:24:39.833Z,102458.97
2019-02-24T01:27:06.808Z,102461.03
2019-02-24T01:29:35.428Z,102456.28
2019-02-24T01:32:03.696Z,102457.97
2019-02-24T01:34:31.334Z,102461.66
2019-02-24T01:36:58.652Z,102456.59
2019-02-24T01:39:25.667Z,102461.98
2019-02-24T01:41:52.665Z,102453.34
2019-02-24T01:44:19.683Z,102455.11
2019-02-24T01:46:46.655Z,102455.08
2019-02-24T01:49:13.842Z,102451.20
2019-02-24T01:51:41.211Z,102448.16
2019-02-24T01:54:08.217Z,102448.13
2019-02-24T01:56:35.359Z,102451.52
2019-02-24T01:59:02.777Z,102449.78
2019-02-24T02:01:30.261Z,102450.23
2019-02-24T02:03:57.273Z,102447.23
2019-02-24T02:06:24.270Z,102446.73
2019-02-24T02:08:51.879Z,102447.70
2019-02-24T02:11:18.957Z,102440.07
2019-02-24T02:13:46.064Z,102444.77
2019-02-24T02:16:14.479Z,102441.35
2019-02-24T02:18:42.918Z,102436.27
2019-02-24T02:21:10.268Z,102443.56
2019-02-24T02:23:37.266Z,102442.73
2019-02-24T02:26:04.434Z,102435.09
2019-02-24T02:28:31.586Z,102438.93
2019-02-24T02:30:58.982Z,102440.59
2019-02-24T02:33:25.961Z,102438.45
2019-02-24T02:35:53.103Z,102431.60
2019-02-24T02:38:21.748Z,102431.60
2019-02-24T02:40:48.968Z,102437.65
2019-02-24T02:43:16.093Z,102430.01
2019-02-24T02:45:43.505Z,102430.14
2019-02-24T02:48:10.469Z,102430.64
2019-02-24T02:50:37.457Z,102437.16
2019-02-24T02:53:05.417Z,102434.66
2019-02-24T02:55:32.378Z,102426.08
2019-02-24T02:57:59.361Z,102423.97
2019-02-24T03:00:33.595Z,102423.52
2019-02-24T03:03:01.381Z,102428.05
2019-02-24T03:05:28.334Z,102431.91
2019-02-24T03:08:00.495Z,102432.59
2019-02-24T03:10:27.496Z,102427.45
2019-02-24T03:12:54.735Z,102427.86
2019-02-24T03:15:21.710Z,102415.01
2019-02-24T03:17:48.903Z,102406.27
2019-02-24T03:20:15.872Z,102411.74
2019-02-24T03:22:43.172Z,102406.53
2019-02-24T03:25:10.132Z,102407.55
2019-02-24T03:27:37.097Z,102412.25
2019-02-24T03:30:05.553Z,102416.16
2019-02-24T03:32:32.659Z,102418.95
2019-02-24T03:34:59.716Z,102416.43
2019-02-24T03:37:27.071Z,102427.47
2019-02-24T03:39:54.098Z,102426.97
2019-02-24T03:42:21.071Z,102429.19
2019-02-24T03:44:48.161Z,102432.05
2019-02-24T03:47:15.125Z,102436.94
2019-02-24T03:49:42.079Z,102437.30
2019-02-24T03:52:09.464Z,102441.53
2019-02-24T03:54:36.404Z,102444.95
2019-02-24T03:57:03.547Z,102441.93
2019-02-24T03:59:30.968Z,102435.41
2019-02-24T04:01:57.922Z,102434.38
2019-02-24T04:04:25.086Z,102427.75
2019-02-24T04:06:52.052Z,102432.55
2019-02-24T04:09:19.054Z,102431.89
2019-02-24T04:11:46.213Z,102431.62
2019-02-24T04:14:13.562Z,102429.21
2019-02-24T04:16:40.552Z,102430.90
2019-02-24T04:19:07.507Z,102434.78
2019-02-24T04:21:34.477Z,102430.80
2019-02-24T04:24:01.408Z,102432.20
2019-02-24T04:26:28.364Z,102429.79
2019-02-24T04:28:55.727Z,102431.59
2019-02-24T04:31:23.892Z,102424.95
2019-02-24T04:33:50.841Z,102428.01
2019-02-24T04:36:17.834Z,102430.39
2019-02-24T04:38:44.781Z,102424.14
2019-02-24T04:41:12.950Z,102439.05
2019-02-24T04:43:41.431Z,102429.84
2019-02-24T04:46:08.369Z,102423.96
2019-02-24T04:48:35.322Z,102417.08
2019-02-24T04:51:02.745Z,102420.31
2019-02-24T04:53:29.749Z,102412.56
2019-02-24T04:55:56.788Z,102416.11
2019-02-24T04:58:23.756Z,102419.73
2019-02-24T05:00:51.104Z,102411.61
2019-02-24T05:03:18.182Z,102415.16
2019-02-24T05:05:45.174Z,102409.59
2019-02-24T05:08:14.022Z,102410.12
2019-02-24T05:10:40.969Z,102409.37
2019-02-24T05:13:07.944Z,102411.02
2019-02-24T05:15:34.944Z,102410.98
2019-02-24T05:18:02.935Z,102404.67
2019-02-24T05:20:29.930Z,102411.92
2019-02-24T05:22:57.262Z,102408.05
2019-02-24T05:25:24.226Z,102413.20
2019-02-24T05:27:51.186Z,102410.61
2019-02-24T05:30:18.581Z,102416.31
2019-02-24T05:32:45.539Z,102422.81
2019-02-24T05:35:12.770Z,102426.06
2019-02-24T05:37:39.713Z,102433.87
2019-02-24T05:40:09.173Z,102434.23
2019-02-24T05:42:36.148Z,102436.09
2019-02-24T05:45:03.460Z,102435.88
2019-02-24T05:47:30.756Z,102443.53
2019-02-24T05:49:57.807Z,102439.34
2019-02-24T05:52:24.788Z,102436.28
2019-02-24T05:54:54.030Z,102436.34
2019-02-24T05:57:21.273Z,102440.05
2019-02-24T05:59:55.227Z,102439.44
2019-02-24T06:02:18.563Z,102444.13
2019-02-24T06:04:45.552Z,102448.02
2019-02-24T06:07:12.495Z,102445.31
2019-02-24T06:09:39.420Z,102443.83
2019-02-24T06:12:06.390Z,102443.88
2019-02-24T06:14:33.352Z,102442.24
2019-02-24T06:17:00.742Z,102442.70
2019-02-24T06:19:27.803Z,102438.41
2019-02-24T06:21:54.771Z,102436.27
2019-02-24T06:24:23.666Z,102439.58
2019-02-24T06:26:50.629Z,102435.91
2019-02-24T06:29:17.562Z,102444.53
2019-02-24T06:31:44.528Z,102453.94
2019-02-24T06:34:11.950Z,102464.61
2019-02-24T06:36:38.896Z,102471.66
2019-02-24T06:39:07.115Z,102459.89
2019-02-24T06:41:34.468Z,102466.74
2019-02-24T06:44:01.437Z,102465.01
2019-02-24T06:46:28.413Z,102463.36
2019-02-24T06:48:55.756Z,102460.48
2019-02-24T06:51:22.832Z,102464.98
2019-02-24T06:53:49.768Z,102468.05
2019-02-24T06:56:17.351Z,102466.88
2019-02-24T06:58:44.518Z,102463.25
2019-02-24T07:01:11.548Z,102463.63
2019-02-24T07:03:38.886Z,102462.78
2019-02-24T07:06:05.880Z,102461.16
2019-02-24T07:08:33.059Z,102461.51
2019-02-24T07:11:00.070Z,102468.77
2019-02-24T07:13:27.486Z,102477.23
2019-02-24T07:15:54.436Z,102481.67
2019-02-24T07:18:21.441Z,102481.48
2019-02-24T07:20:48.735Z,102487.73
2019-02-24T07:23:15.730Z,102477.94
2019-02-24T07:25:42.752Z,102473.91
2019-02-24T07:28:09.715Z,102478.55
2019-02-24T07:30:36.812Z,102472.17
2019-02-24T07:33:03.802Z,102467.90
2019-02-24T07:35:34.232Z,102473.22
2019-02-24T07:38:01.523Z,102470.26
2019-02-24T07:40:28.540Z,102476.67
2019-02-24T07:42:56.036Z,102461.45
2019-02-24T07:45:23.031Z,102457.67
2019-02-24T07:47:50.111Z,102452.95
2019-02-24T07:50:17.110Z,102451.13
2019-02-24T07:52:44.424Z,102449.83
2019-02-24T07:55:11.551Z,102455.05
2019-02-24T07:57:41.501Z,102454.81
2019-02-24T08:00:09.153Z,102455.42
2019-02-24T08:02:36.142Z,102460.09
2019-02-24T08:05:05.542Z,102456.95
2019-02-24T08:07:32.657Z,102456.36
2019-02-24T08:09:59.677Z,102455.08
2019-02-24T08:12:27.095Z,102445.27
2019-02-24T08:14:54.069Z,102447.45
2019-02-24T08:17:23.320Z,102440.69
2019-02-24T08:19:50.503Z,102451.86
2019-02-24T08:22:20.204Z,102442.48
2019-02-24T08:24:47.399Z,102447.23
2019-02-24T08:27:14.984Z,102446.77
2019-02-24T08:29:42.077Z,102457.92
2019-02-24T08:32:10.964Z,102453.48
2019-02-24T08:34:38.167Z,102452.09
2019-02-24T08:37:05.449Z,102454.61
2019-02-24T08:39:32.635Z,102447.00
2019-02-24T08:42:02.121Z,102448.80
2019-02-24T08:44:30.171Z,102448.77
2019-02-24T08:46:58.670Z,102445.97
2019-02-24T08:49:26.159Z,102445.59
2019-02-24T08:51:53.941Z,102448.28
2019-02-24T08:54:21.535Z,102456.97
2019-02-24T08:56:49.671Z,102452.79
2019-02-24T08:59:18.443Z,102456.87
2019-02-24T09:01:46.343Z,102459.21
2019-02-24T09:04:15.996Z,102467.81
2019-02-24T09:06:43.560Z,102471.05
2019-02-24T09:09:10.956Z,102470.01
2019-02-24T09:11:39.028Z,102470.13
2019-02-24T09:14:06.356Z,102474.27
2019-02-24T09:16:33.601Z,102471.23
2019-02-24T09:19:01.681Z,102477.70
2019-02-24T09:21:32.153Z,102479.22
2019-02-24T09:23:59.391Z,102481.77
2019-02-24T09:26:27.259Z,102468.11
2019-02-24T09:28:56.382Z,102466.72
2019-02-24T09:31:24.298Z,102470.05
2019-02-24T09:33:52.582Z,102465.72
2019-02-24T09:36:21.222Z,102474.03
2019-02-24T09:38:48.978Z,102469.88
2019-02-24T09:41:16.708Z,102478.75
2019-02-24T09:44:58.338Z,102477.20
2019-02-24T09:48:24.309Z,102479.19
2019-02-24T09:50:54.944Z,102484.30
2019-02-24T09:53:23.138Z,102481.11
2019-02-24T09:55:50.491Z,102484.84
2019-02-24T09:58:18.155Z,102483.83
2019-02-24T10:00:45.975Z,102473.45
2019-02-24T10:03:13.154Z,102472.03
2019-02-24T10:05:40.224Z,102477.73
2019-02-24T10:08:09.184Z,102471.72
2019-02-24T10:10:37.481Z,102487.12
2019-02-24T10:13:04.733Z,102483.59
2019-02-24T10:15:32.833Z,102482.27
2019-02-24T10:17:59.954Z,102468.94
2019-02-24T10:20:27.099Z,102475.04
2019-02-24T10:22:55.387Z,102489.18
2019-02-24T10:25:23.656Z,102495.38
2019-02-24T10:27:51.861Z,102489.39
2019-02-24T10:30:18.888Z,102485.75
2019-02-24T10:32:46.291Z,102490.10
2019-02-24T10:35:15.120Z,102485.92
2019-02-24T10:37:43.445Z,102491.75
2019-02-24T10:40:13.804Z,102492.45
2019-02-24T10:42:41.189Z,102491.20
2019-02-24T10:45:12.160Z,102485.77
2019-02-24T10:47:52.321Z,102488.55
2019-02-24T10:50:19.748Z,102485.44
2019-02-24T10:52:50.319Z,102486.69
2019-02-24T10:55:17.850Z,102484.80
2019-02-24T10:57:46.048Z,102490.72
2019-02-24T11:00:13.744Z,102483.89
2019-02-24T11:02:41.000Z,102481.46
2019-02-24T11:05:11.303Z,102476.30
2019-02-24T11:07:38.491Z,102474.53
2019-02-24T11:10:10.312Z,102480.83
2019-02-24T11:12:38.331Z,102483.74
2019-02-24T11:15:10.277Z,102489.12
2019-02-24T11:17:41.975Z,102475.38
2019-02-24T11:20:12.835Z,102472.29
2019-02-24T11:22:41.024Z,102472.83
2019-02-24T11:25:10.378Z,102478.27
2019-02-24T11:27:38.328Z,102469.67
2019-02-24T11:30:06.639Z,102465.86
2019-02-24T11:32:35.869Z,102458.31
2019-02-24T11:35:12.108Z,102460.21
2019-02-24T11:37:43.163Z,102453.00
2019-02-24T11:40:11.879Z,102450.02
2019-02-24T11:42:43.512Z,102452.31
2019-02-24T11:45:14.954Z,102444.84
2019-02-24T11:47:42.753Z,102447.80
2019-02-24T11:50:09.796Z,102449.06
2019-02-24T11:52:45.257Z,102442.77
2019-02-24T11:55:13.287Z,102451.36
2019-02-24T11:57:40.400Z,102446.33
2019-02-24T12:00:09.972Z,102439.73
2019-02-24T12:02:38.687Z,102437.66
2019-02-24T12:05:06.298Z,102435.95
2019-02-24T12:07:33.519Z,102431.09
2019-02-24T12:10:05.047Z,102424.30
2019-02-24T12:12:33.190Z,102433.93
2019-02-24T12:15:00.664Z,102430.59
2019-02-24T12:17:38.063Z,102427.47
2019-02-24T12:20:10.958Z,102428.76
2019-02-24T12:22:39.447Z,102433.92
2019-02-24T12:25:07.495Z,102413.23
2019-02-24T12:27:35.146Z,102421.42
2019-02-24T12:30:04.154Z,102423.14
2019-02-24T12:32:34.112Z,102416.75
2019-02-24T12:35:01.530Z,102411.86
2019-02-24T12:37:30.329Z,102416.73
2019-02-24T12:39:58.326Z,102406.67
2019-02-24T12:42:26.853Z,102411.94
2019-02-24T12:44:55.527Z,102402.80
2019-02-24T12:47:23.653Z,102400.43
2019-02-24T12:50:02.759Z,102394.19
2019-02-24T12:52:23.363Z,102398.66
2019-02-24T12:54:52.157Z,102395.46
2019-02-24T12:57:22.286Z,102392.98
2019-02-24T12:59:49.920Z,102389.31
2019-02-24T13:02:17.522Z,102388.66
2019-02-24T13:04:47.160Z,102383.27
2019-02-24T13:07:15.101Z,102382.03
2019-02-24T13:09:43.961Z,102379.58
2019-02-24T13:12:13.468Z,102376.48
2019-02-24T13:14:41.266Z,102374.77
2019-02-24T13:17:08.701Z,102381.13
2019-02-24T13:19:35.759Z,102364.75
2019-02-24T13:22:05.878Z,102367.28
2019-02-24T13:24:33.518Z,102360.81
2019-02-24T13:27:02.891Z,102359.23
2019-02-24T13:29:31.273Z,102350.17
2019-02-24T13:31:59.084Z,102352.91
2019-02-24T13:34:27.601Z,102347.38
2019-02-24T13:36:55.555Z,102348.67
2019-02-24T13:39:23.393Z,102343.03
2019-02-24T13:41:51.746Z,102345.99
2019-02-24T13:44:22.812Z,102340.09
2019-02-24T13:46:51.761Z,102335.33
2019-02-24T13:49:19.399Z,102332.85
2019-02-24T13:51:46.466Z,102329.39
2019-02-24T13:54:14.154Z,102326.63
2019-02-24T13:56:48.357Z,102320.14
2019-02-24T13:59:30.451Z,102324.45
2019-02-24T14:02:09.608Z,102321.20
2019-02-24T14:04:38.576Z,102315.73
2019-02-24T14:07:09.781Z,102306.09
2019-02-24T14:09:38.719Z,102303.34
2019-02-24T14:12:08.142Z,102305.50
2019-02-24T14:14:35.543Z,102305.52
2019-02-24T14:17:03.077Z,102312.02
2019-02-24T14:19:33.774Z,102312.63
2019-02-24T14:22:00.823Z,102305.16
2019-02-24T14:24:28.149Z,102309.17
2019-02-24T14:26:55.391Z,102298.75
2019-02-24T14:29:22.461Z,102301.52
2019-02-24T14:32:35.465Z,102302.33
2019-02-24T14:35:39.746Z,102299.24
2019-02-24T14:38:08.414Z,102291.52
2019-02-24T14:40:35.649Z,102293.40
2019-02-24T14:43:03.195Z,102285.52
2019-02-24T14:45:31.441Z,102295.34
2019-02-24T14:47:59.499Z,102289.22
2019-02-24T14:50:27.202Z,102294.48
2019-02-24T14:52:54.365Z,102292.22
2019-02-24T14:55:22.606Z,102305.70
2019-02-24T14:57:49.904Z,102301.91
2019-02-24T15:00:17.135Z,102307.59
2019-02-24T15:02:44.292Z,102308.03
2019-02-24T15:05:13.116Z,102311.89
2019-02-24T15:07:41.090Z,102313.68
2019-02-24T15:10:12.145Z,102310.02
2019-02-24T15:12:43.669Z,102314.06
2019-02-24T15:15:16.020Z,102313.00
2019-02-24T15:17:43.496Z,102305.40
2019-02-24T15:20:14.820Z,102310.14
2019-02-24T15:22:43.459Z,102306.53
2019-02-24T15:25:13.628Z,102311.61
2019-02-24T15:27:42.965Z,102306.97
2019-02-24T15:30:16.342Z,102306.00
2019-02-24T15:32:51.350Z,102313.45
2019-02-24T15:35:14.576Z,102310.48
2019-02-24T15:37:43.606Z,102307.27
2019-02-24T15:40:14.487Z,102307.14
2019-02-24T15:42:47.958Z,102312.22
2019-02-24T15:45:17.765Z,102303.26
2019-02-24T15:47:46.263Z,102303.02
2019-02-24T15:50:17.383Z,102306.27
2019-02-24T15:52:49.295Z,102308.19
2019-02-24T15:55:23.362Z,102303.54
2019-02-24T15:57:52.220Z,102298.34
2019-02-24T16:00:20.297Z,102306.07
2019-02-24T16:03:01.580Z,102306.47
2019-02-24T16:05:27.150Z,102303.50
2019-02-24T16:07:56.092Z,102301.31
2019-02-24T16:10:23.821Z,102308.02
2019-02-24T16:12:52.882Z,102304.58
2019-02-24T16:15:20.699Z,102308.55
2019-02-24T16:17:48.581Z,102302.75
2019-02-24T16:20:18.976Z,102306.77
2019-02-24T16:22:47.884Z,102315.42
2019-02-24T16:25:15.957Z,102314.44
2019-02-24T16:27:45.781Z,102317.05
2019-02-24T16:30:15.282Z,102327.02
2019-02-24T16:32:43.532Z,102316.38
2019-02-24T16:35:13.606Z,102318.32
2019-02-24T16:37:42.376Z,102314.33
2019-02-24T16:40:21.508Z,102315.63
2019-02-24T16:42:54.779Z,102321.02
2019-02-24T16:45:22.860Z,102321.78
2019-02-24T16:47:50.207Z,102322.24
2019-02-24T16:50:17.795Z,102318.05
2019-02-24T16:52:53.934Z,102315.38
2019-02-24T16:55:24.460Z,102317.13
2019-02-24T16:57:54.077Z,102326.58
2019-02-24T17:00:23.725Z,102321.28
2019-02-24T17:02:54.700Z,102322.74
2019-02-24T17:05:24.026Z,102326.75
2019-02-24T17:07:53.538Z,102327.50
2019-02-24T17:10:25.766Z,102323.39
2019-02-24T17:13:52.294Z,102318.29
2019-02-24T17:17:21.045Z,102319.05
2019-02-24T17:19:51.170Z,102325.27
2019-02-24T17:22:19.712Z,102328.80
2019-02-24T17:24:47.538Z,102331.05
2019-02-24T17:27:16.344Z,102331.61
2019-02-24T17:29:44.457Z,102328.45
2019-02-24T17:32:14.714Z,102330.75
2019-02-24T17:34:56.074Z,102335.49
2019-02-24T17:37:23.762Z,102346.42
2019-02-24T17:39:51.720Z,102348.03
2019-02-24T17:42:21.758Z,102351.23
2019-02-24T17:44:56.236Z,102352.86
2019-02-24T17:47:29.257Z,102352.89
2019-02-24T17:50:02.725Z,102349.41
2019-02-24T17:52:30.023Z,102357.27
2019-02-24T17:54:59.782Z,102350.22
2019-02-24T17:57:30.832Z,102363.80
2019-02-24T17:59:59.051Z,102370.33
2019-02-24T18:02:34.633Z,102372.45
2019-02-24T18:05:06.699Z,102381.63
2019-02-24T18:07:35.949Z,102381.08
2019-02-24T18:10:08.017Z,102384.38
2019-02-24T18:12:38.461Z,102387.96
2019-02-24T18:15:12.670Z,102386.95
2019-02-24T18:17:51.031Z,102391.05
2019-02-24T18:20:25.692Z,102395.47
2019-02-24T18:23:01.692Z,102399.11
2019-02-24T18:25:33.688Z,102398.60
2019-02-24T18:28:03.678Z,102399.02
2019-02-24T18:30:38.065Z,102398.52
2019-02-24T18:33:11.403Z,102400.13
2019-02-24T18:35:45.304Z,102396.70
2019-02-24T18:38:12.972Z,102393.45
2019-02-24T18:40:41.972Z,102388.72
2019-02-24T18:43:10.686Z,102384.00
2019-02-24T18:45:41.024Z,102381.33
2019-02-24T18:48:15.162Z,102382.37
2019-02-24T18:50:44.928Z,102382.27
2019-02-24T18:53:17.396Z,102382.64
2019-02-24T18:55:47.046Z,102383.55
2019-02-24T18:58:16.586Z,102383.74
2019-02-24T19:00:47.090Z,102379.66
2019-02-24T19:03:15.578Z,102379.24
2019-02-24T19:05:50.361Z,102373.27
2019-02-24T19:08:25.807Z,102372.39
2019-02-24T19:10:58.380Z,102375.25
2019-02-24T19:13:27.965Z,102377.62
2019-02-24T19:16:02.483Z,102370.28
2019-02-24T19:18:33.106Z,102371.58
2019-02-24T19:21:01.350Z,102367.16
2019-02-24T19:23:39.927Z,102362.14
2019-02-24T19:26:10.596Z,102365.63
2019-02-24T19:28:42.172Z,102368.82
2019-02-24T19:31:10.759Z,102364.47
2019-02-24T19:33:39.898Z,102372.09
2019-02-24T19:36:08.747Z,102373.20
2019-02-24T19:38:38.450Z,102374.80
2019-02-24T19:41:11.539Z,102368.52
2019-02-24T19:43:41.939Z,102371.16
2019-02-24T19:46:11.306Z,102374.33
2019-02-24T19:48:42.376Z,102372.22
2019-02-24T19:51:11.807Z,102375.37
2019-02-24T19:53:42.856Z,102376.94
2019-02-24T19:56:14.661Z,102381.38
2019-02-24T19:58:43.796Z,102383.88
2019-02-24T20:01:13.874Z,102385.56
2019-02-24T20:03:57.651Z,102390.31
2019-02-24T20:06:27.167Z,102393.36
2019-02-24T20:08:58.753Z,102398.58
2019-02-24T20:11:32.972Z,102396.45
2019-02-24T20:14:02.382Z,102395.22
2019-02-24T20:16:34.292Z,102400.37
2019-02-24T20:19:07.021Z,102390.79
2019-02-24T20:21:43.737Z,102398.00
2019-02-24T20:24:13.362Z,102397.61
2019-02-24T20:26:44.666Z,102398.53
2019-02-24T20:29:17.926Z,102404.99
2019-02-24T20:31:46.925Z,102412.69
2019-02-24T20:34:14.770Z,102416.59
2019-02-24T20:36:45.955Z,102429.13
2019-02-24T20:39:18.390Z,102426.61
2019-02-24T20:41:47.291Z,102424.88
2019-02-24T20:44:19.882Z,102414.35
2019-02-24T20:46:55.048Z,102426.09
2019-02-24T20:49:25.344Z,102418.31
2019-02-24T20:51:55.113Z,102420.46
2019-02-24T20:54:25.246Z,102424.41
2019-02-24T20:56:55.078Z,102426.67
2019-02-24T20:59:24.258Z,102429.27
2019-02-24T21:01:55.269Z,102431.93
2019-02-24T21:04:27.748Z,102438.42
2019-02-24T21:07:01.680Z,102446.05
2019-02-24T21:09:31.999Z,102446.84
2019-02-24T21:12:00.972Z,102446.00
2019-02-24T21:14:32.330Z,102450.00
2019-02-24T21:17:00.409Z,102450.89
2019-02-24T21:19:35.877Z,102447.52
2019-02-24T21:22:05.831Z,102456.08
2019-02-24T21:24:34.612Z,102443.31
2019-02-24T21:27:03.201Z,102443.39
2019-02-24T21:29:43.753Z,102450.27
2019-02-24T21:32:11.066Z,102451.56
2019-02-24T21:34:39.117Z,102451.58
2019-02-24T21:37:10.723Z,102450.78
2019-02-24T21:39:37.722Z,102444.37
2019-02-24T21:42:04.730Z,102445.67
2019-02-24T21:44:32.941Z,102452.95
2019-02-24T21:47:00.096Z,102455.94
2019-02-24T21:49:30.165Z,102454.64
2019-02-24T21:51:59.683Z,102463.20
2019-02-24T21:54:26.672Z,102460.20
2019-02-24T21:56:56.085Z,102460.66
2019-02-24T21:59:24.521Z,102458.52
2019-02-24T22:01:56.486Z,102460.23
2019-02-24T22:04:23.498Z,102456.78
2019-02-24T22:06:50.920Z,102452.91
2019-02-24T22:09:19.059Z,102457.63
2019-02-24T22:11:46.159Z,102461.08
2019-02-24T22:14:16.677Z,102455.53
2019-02-24T22:16:45.945Z,102457.66
2019-02-24T22:19:12.925Z,102457.23
2019-02-24T22:21:40.252Z,102457.25
2019-02-24T22:24:08.422Z,102463.23
2019-02-24T22:26:35.376Z,102457.67
2019-02-24T22:29:03.810Z,102458.50
2019-02-24T22:31:30.852Z,102456.34
2019-02-24T22:33:57.815Z,102453.72
2019-02-24T22:36:24.759Z,102452.02
2019-02-24T22:38:51.723Z,102451.61
2019-02-24T22:41:18.685Z,102446.05
2019-02-24T22:43:45.981Z,102443.92
2019-02-24T22:46:12.953Z,102445.63
2019-02-24T22:48:39.937Z,102441.77
2019-02-24T22:51:06.896Z,102449.48
2019-02-24T22:53:33.914Z,102441.34
2019-02-24T22:56:00.851Z,102441.71
2019-02-24T22:58:28.201Z,102446.87
2019-02-24T23:01:10.213Z,102450.37
2019-02-24T23:03:41.001Z,102455.09
2019-02-24T23:06:08.363Z,102457.01
2019-02-24T23:08:35.333Z,102462.81
2019-02-24T23:11:02.295Z,102451.98
2019-02-24T23:13:29.682Z,102454.98
2019-02-24T23:15:56.652Z,102458.61
2019-02-24T23:18:23.597Z,102448.73
2019-02-24T23:20:50.544Z,102449.84
2019-02-24T23:23:17.507Z,102460.08
2019-02-24T23:25:44.464Z,102462.53
2019-02-24T23:28:12.837Z,102457.98
2019-02-24T23:30:39.853Z,102458.19
2019-02-24T23:33:06.933Z,102459.16
2019-02-24T23:35:34.364Z,102455.80
2019-02-24T23:38:01.359Z,102445.55
2019-02-24T23:40:28.305Z,102451.20
2019-02-24T23:42:55.265Z,102451.21
2019-02-24T23:45:22.525Z,102448.62
2019-02-24T23:47:49.469Z,102448.17
2019-02-24T23:50:16.417Z,102447.81
2019-02-24T23:52:44.114Z,102449.94
2019-02-24T23:55:11.032Z,102449.02
2019-02-24T23:57:37.988Z,102452.80
